createdAt,value
2019-05-18T00:06:54.331Z,19.4
2019-05-18T00:23:40.733Z,19.4
2019-05-18T00:40:27.187Z,19.4
2019-05-18T00:57:13.418Z,19.4
2019-05-18T01:14:00.297Z,19.0
2019-05-18T01:30:45.758Z,19.0
2019-05-18T01:47:32.350Z,19.0
2019-05-18T02:04:17.568Z,19.0
2019-05-18T02:21:03.353Z,18.7
2019-05-18T02:37:49.158Z,18.7
2019-05-18T02:54:34.712Z,18.7
2019-05-18T03:11:20.318Z,18.7
2019-05-18T03:28:05.836Z,18.7
2019-05-18T03:44:51.321Z,18.7
2019-05-18T04:01:36.785Z,18.7
2019-05-18T04:18:22.105Z,18.7
2019-05-18T04:35:07.624Z,18.7
2019-05-18T04:51:53.127Z,18.7
2019-05-18T05:08:38.882Z,19.0
2019-05-18T05:18:42.793Z,19.7
2019-05-18T05:35:29.840Z,20.0
2019-05-18T05:52:17.132Z,20.3
2019-05-18T06:09:04.719Z,20.6
2019-05-18T06:25:53.099Z,20.6
2019-05-18T06:42:40.501Z,21.0
2019-05-18T06:59:28.751Z,21.3
2019-05-18T07:16:17.382Z,21.3
2019-05-18T07:33:06.104Z,21.3
2019-05-18T07:49:54.752Z,21.3
2019-05-18T08:06:43.380Z,21.3
2019-05-18T08:23:32.077Z,21.6
2019-05-18T08:40:20.971Z,21.6
2019-05-18T08:57:09.957Z,21.6
2019-05-18T09:13:59.189Z,21.9
2019-05-18T09:30:48.529Z,21.9
2019-05-18T09:47:38.034Z,21.9
2019-05-18T10:04:27.711Z,21.9
2019-05-18T10:21:25.991Z,21.9
2019-05-18T10:38:10.446Z,22.2
2019-05-18T10:54:56.457Z,21.9
2019-05-18T11:11:46.166Z,21.9
2019-05-18T11:28:35.756Z,22.2
2019-05-18T11:45:25.670Z,22.6
2019-05-18T12:02:15.735Z,22.6
2019-05-18T12:19:06.106Z,22.6
2019-05-18T12:35:56.076Z,22.6
2019-05-18T12:52:46.032Z,22.6
2019-05-18T13:09:36.378Z,22.9
2019-05-18T13:26:26.915Z,22.9
2019-05-18T13:36:33.415Z,22.9
2019-05-18T13:53:23.783Z,22.6
2019-05-18T14:10:14.654Z,22.9
2019-05-18T14:25:23.443Z,22.6
2019-05-18T14:42:13.603Z,22.2
2019-05-18T14:52:19.670Z,22.2
2019-05-18T15:00:44.578Z,22.6
2019-05-18T15:05:47.665Z,22.6
2019-05-18T15:22:37.998Z,22.6
2019-05-18T15:27:41.830Z,22.6
2019-05-18T15:44:31.450Z,22.9
2019-05-18T15:57:59.747Z,22.6
2019-05-18T16:09:46.992Z,22.6
2019-05-18T16:24:56.969Z,22.6
2019-05-18T16:35:02.474Z,22.2
2019-05-18T16:51:52.087Z,22.2
2019-05-18T17:08:42.055Z,22.2
2019-05-18T17:25:31.816Z,21.9
2019-05-18T17:42:21.596Z,21.9
2019-05-18T17:59:11.426Z,21.9
2019-05-18T18:16:01.214Z,21.9
2019-05-18T18:27:47.795Z,21.6
2019-05-18T18:44:37.441Z,21.6
2019-05-18T19:01:26.785Z,21.6
2019-05-18T19:18:16.150Z,21.3
2019-05-18T19:35:05.524Z,21.3
2019-05-18T19:51:54.556Z,21.3
2019-05-18T20:08:43.846Z,21.3
2019-05-18T20:25:32.059Z,21.3
2019-05-18T20:42:20.333Z,21.3
2019-05-18T20:59:08.572Z,21.0
2019-05-18T21:15:56.865Z,21.0
2019-05-18T21:32:45.117Z,21.0
2019-05-18T21:49:33.198Z,21.0
2019-05-18T22:06:21.330Z,21.0
2019-05-18T22:23:09.239Z,20.6
2019-05-18T22:39:57.081Z,20.6
2019-05-18T22:56:44.979Z,20.6
2019-05-18T23:13:32.921Z,20.6
2019-05-18T23:30:20.413Z,20.6
2019-05-18T23:47:08.076Z,20.6
